Time;durP1;ratioP1;P1;durP2;ratioP2;P2;SDS_P1;SDS_P2;PMS_P1;PMS_P2;Temp;Humidity;BMP_temperature;BMP_pressure;BME280_temperature;BME280_humidity;BME280_pressure;Samples;Min_cycle;Max_cycle;Signal;HPM_P1;HPM_P2
2023/04/06 00:00:08;;;;;;;13.02;2.17;;;;;;;;;;4980350;28;20780;-61
2023/04/06 00:02:35;;;;;;;6.93;2.38;;;;;;;;;;4978838;28;20181;-59
2023/04/06 00:05:02;;;;;;;7.20;2.30;;;;;;;;;;4980551;28;20050;-60
2023/04/06 00:07:29;;;;;;;7.30;2.30;;;;;;;;;;4979076;28;20050;-65
2023/04/06 00:09:56;;;;;;;13.82;2.50;;;;;;;;;;4993786;28;20042;-61
2023/04/06 00:12:23;;;;;;;5.80;1.95;;;;;;;;;;4979022;28;20370;-61
2023/04/06 00:14:49;;;;;;;5.15;2.15;;;;;;;;;;4978035;28;20046;-65
2023/04/06 00:17:16;;;;;;;7.35;2.13;;;;;;;;;;4980057;28;20035;-61
2023/04/06 00:19:43;;;;;;;5.65;2.22;;;;;;;;;;4977720;28;20327;-61
2023/04/06 00:22:09;;;;;;;4.38;1.98;;;;;;;;;;4979571;28;20535;-63
2023/04/06 00:24:36;;;;;;;5.07;1.95;;;;;;;;;;4978413;28;20739;-61
2023/04/06 00:27:03;;;;;;;7.38;1.92;;;;;;;;;;4978669;28;20042;-63
2023/04/06 00:29:29;;;;;;;5.88;2.15;;;;;;;;;;4978141;28;20124;-63
2023/04/06 00:31:56;;;;;;;7.50;2.42;;;;;;;;;;4979059;28;20038;-64
2023/04/06 00:34:22;;;;;;;9.60;2.35;;;;;;;;;;4978554;28;20035;-62
2023/04/06 00:36:49;;;;;;;10.65;2.60;;;;;;;;;;5014617;28;20446;-63
2023/04/06 00:39:16;;;;;;;14.02;2.63;;;;;;;;;;5014796;28;20072;-68
2023/04/06 00:41:46;;;;;;;14.05;2.88;;;;;;;;;;5014187;28;20068;-67
2023/04/06 00:44:13;;;;;;;5.50;2.17;;;;;;;;;;5014398;28;20148;-65
2023/04/06 00:46:40;;;;;;;6.47;2.75;;;;;;;;;;5014554;28;20048;-64
2023/04/06 00:49:06;;;;;;;12.77;2.67;;;;;;;;;;4993602;28;20486;-63
2023/04/06 00:51:33;;;;;;;6.68;2.58;;;;;;;;;;5014042;28;20103;-64
2023/04/06 00:54:00;;;;;;;6.28;2.25;;;;;;;;;;5015537;28;20117;-64
2023/04/06 00:56:26;;;;;;;4.80;2.35;;;;;;;;;;5015052;28;20049;-64
2023/04/06 00:58:53;;;;;;;5.53;2.55;;;;;;;;;;5015362;28;20044;-64
2023/04/06 01:01:20;;;;;;;9.15;2.83;;;;;;;;;;5014094;28;20049;-67
2023/04/06 01:03:49;;;;;;;6.65;2.22;;;;;;;;;;5016649;28;21496;-64
2023/04/06 01:06:15;;;;;;;8.07;2.83;;;;;;;;;;5016066;28;20057;-62
2023/04/06 01:08:42;;;;;;;10.77;2.60;;;;;;;;;;4985222;28;20026;-62
2023/04/06 01:11:09;;;;;;;9.50;3.17;;;;;;;;;;4977881;28;20074;-60
2023/04/06 01:13:55;;;;;;;5.63;2.80;;;;;;;;;;4955963;28;20054;-61
2023/04/06 01:16:22;;;;;;;10.10;2.85;;;;;;;;;;4956069;28;20125;-59
2023/04/06 01:18:50;;;;;;;10.15;3.10;;;;;;;;;;4955389;28;20393;-63
2023/04/06 01:21:17;;;;;;;5.85;2.90;;;;;;;;;;4957691;28;20038;-62
2023/04/06 01:23:45;;;;;;;10.55;3.30;;;;;;;;;;4954824;28;20143;-60
2023/04/06 01:26:11;;;;;;;12.85;3.30;;;;;;;;;;4954522;28;20047;-60
2023/04/06 01:28:38;;;;;;;8.60;3.55;;;;;;;;;;4954509;28;20085;-59
2023/04/06 01:31:06;;;;;;;7.53;2.90;;;;;;;;;;4953096;28;20504;-62
2023/04/06 01:33:32;;;;;;;11.23;3.95;;;;;;;;;;4951091;28;20053;-60
2023/04/06 01:36:00;;;;;;;10.50;3.17;;;;;;;;;;4954161;28;20089;-60
2023/04/06 01:38:26;;;;;;;7.35;3.25;;;;;;;;;;4955538;28;20092;-65
2023/04/06 01:40:54;;;;;;;6.80;3.08;;;;;;;;;;4951148;28;20050;-64
2023/04/06 01:43:21;;;;;;;9.73;3.40;;;;;;;;;;4954944;28;20047;-67
2023/04/06 01:45:47;;;;;;;15.07;4.45;;;;;;;;;;4966615;28;20042;-64
2023/04/06 01:48:14;;;;;;;7.30;3.20;;;;;;;;;;4970879;28;20039;-61
2023/04/06 01:50:41;;;;;;;7.75;3.22;;;;;;;;;;4975962;28;20042;-62
2023/04/06 01:53:08;;;;;;;8.25;3.50;;;;;;;;;;4977278;28;20046;-65
2023/04/06 01:55:34;;;;;;;7.88;3.25;;;;;;;;;;4975912;28;20047;-63
2023/04/06 01:58:01;;;;;;;7.78;3.42;;;;;;;;;;4977227;28;20579;-63
2023/04/06 02:00:27;;;;;;;9.93;3.88;;;;;;;;;;4975703;28;20495;-63
2023/04/06 02:02:54;;;;;;;8.13;4.03;;;;;;;;;;4969379;28;20038;-63
2023/04/06 02:05:21;;;;;;;11.93;4.13;;;;;;;;;;4990668;28;20050;-65
2023/04/06 02:07:48;;;;;;;12.52;3.95;;;;;;;;;;4977638;28;20069;-64
2023/04/06 02:10:15;;;;;;;10.95;3.67;;;;;;;;;;4968948;28;20491;-63
2023/04/06 02:12:42;;;;;;;8.85;4.05;;;;;;;;;;4975741;28;20034;-62
2023/04/06 02:15:09;;;;;;;11.43;4.40;;;;;;;;;;4977442;28;20041;-63
2023/04/06 02:17:36;;;;;;;10.52;4.60;;;;;;;;;;4976899;28;21905;-63
2023/04/06 02:20:02;;;;;;;12.98;5.22;;;;;;;;;;4976234;28;20047;-62
2023/04/06 02:22:29;;;;;;;15.23;4.78;;;;;;;;;;4977545;28;20034;-61
2023/04/06 02:24:56;;;;;;;12.15;5.13;;;;;;;;;;4977268;28;20046;-61
2023/04/06 02:27:22;;;;;;;9.60;4.32;;;;;;;;;;4975459;28;20653;-62
2023/04/06 02:29:49;;;;;;;11.13;4.80;;;;;;;;;;4975993;28;20081;-64
2023/04/06 02:32:16;;;;;;;13.98;5.30;;;;;;;;;;4975013;28;20070;-64
2023/04/06 02:34:42;;;;;;;9.93;4.78;;;;;;;;;;4974790;28;20037;-65
2023/04/06 02:37:09;;;;;;;11.05;4.88;;;;;;;;;;4974822;28;20049;-64
2023/04/06 02:39:35;;;;;;;13.40;4.93;;;;;;;;;;4976735;28;20046;-63
2023/04/06 02:42:02;;;;;;;12.70;5.65;;;;;;;;;;4970865;28;20041;-64
2023/04/06 02:44:29;;;;;;;11.77;5.55;;;;;;;;;;4969886;28;20141;-63
2023/04/06 02:46:55;;;;;;;12.38;5.55;;;;;;;;;;4976919;28;20388;-61
2023/04/06 02:49:22;;;;;;;9.15;4.90;;;;;;;;;;4975083;28;20189;-64
2023/04/06 02:51:49;;;;;;;14.57;5.43;;;;;;;;;;4975153;28;20380;-61
2023/04/06 02:54:15;;;;;;;12.50;4.93;;;;;;;;;;4964057;28;20481;-62
2023/04/06 02:56:42;;;;;;;10.85;5.15;;;;;;;;;;4975080;28;20454;-64
2023/04/06 02:59:08;;;;;;;13.18;4.72;;;;;;;;;;4967239;28;20042;-63
2023/04/06 03:01:35;;;;;;;14.35;5.30;;;;;;;;;;4975113;28;20034;-63
2023/04/06 03:04:02;;;;;;;9.93;4.57;;;;;;;;;;4969982;28;20057;-66
2023/04/06 03:06:30;;;;;;;12.05;5.22;;;;;;;;;;4976294;28;20499;-66
2023/04/06 03:08:56;;;;;;;11.50;5.55;;;;;;;;;;4976490;28;20122;-66
2023/04/06 03:11:23;;;;;;;11.98;5.22;;;;;;;;;;4968456;28;20042;-68
2023/04/06 03:13:50;;;;;;;18.35;5.43;;;;;;;;;;4984822;28;20031;-66
2023/04/06 03:16:16;;;;;;;11.20;5.05;;;;;;;;;;4975380;28;20056;-64
2023/04/06 03:18:44;;;;;;;13.85;5.35;;;;;;;;;;4965849;28;20077;-65
2023/04/06 03:21:11;;;;;;;10.75;5.07;;;;;;;;;;4972250;28;20054;-64
2023/04/06 03:23:38;;;;;;;10.77;5.00;;;;;;;;;;4974755;28;20063;-63
2023/04/06 03:26:05;;;;;;;16.25;5.97;;;;;;;;;;4980070;28;20050;-65
2023/04/06 03:28:31;;;;;;;11.60;5.32;;;;;;;;;;4980029;28;20046;-64
2023/04/06 03:30:58;;;;;;;8.70;5.15;;;;;;;;;;4980815;28;20093;-65
2023/04/06 03:33:26;;;;;;;16.95;5.25;;;;;;;;;;4989473;28;20039;-62
2023/04/06 03:35:53;;;;;;;11.77;5.13;;;;;;;;;;4972821;28;20066;-65
2023/04/06 03:38:20;;;;;;;11.77;5.28;;;;;;;;;;4979394;28;20831;-64
2023/04/06 03:40:47;;;;;;;16.08;5.55;;;;;;;;;;4989702;28;20070;-62
2023/04/06 03:43:13;;;;;;;12.63;5.57;;;;;;;;;;4979991;28;20054;-64
2023/04/06 03:45:40;;;;;;;10.70;5.15;;;;;;;;;;4979287;28;22092;-65
2023/04/06 03:48:07;;;;;;;14.93;6.15;;;;;;;;;;4978684;28;20511;-63
2023/04/06 03:50:33;;;;;;;11.15;5.53;;;;;;;;;;4978023;28;20562;-65
2023/04/06 03:53:02;;;;;;;15.52;5.93;;;;;;;;;;4974779;28;20042;-65
2023/04/06 03:55:29;;;;;;;11.55;5.57;;;;;;;;;;4978479;28;20431;-66
2023/04/06 03:57:56;;;;;;;13.30;6.38;;;;;;;;;;4980080;28;20039;-66
2023/04/06 04:00:23;;;;;;;17.33;6.55;;;;;;;;;;4977163;28;20133;-64
2023/04/06 04:02:50;;;;;;;15.10;6.32;;;;;;;;;;4979319;28;20050;-64
2023/04/06 04:05:17;;;;;;;16.10;6.05;;;;;;;;;;4978079;28;20053;-64
2023/04/06 04:07:43;;;;;;;18.50;6.70;;;;;;;;;;4978143;28;20507;-63
2023/04/06 04:10:10;;;;;;;13.88;6.53;;;;;;;;;;4978946;28;20073;-63
2023/04/06 04:12:37;;;;;;;13.50;7.13;;;;;;;;;;4974835;28;20035;-63
2023/04/06 04:15:04;;;;;;;14.40;6.90;;;;;;;;;;4979273;28;20047;-65
2023/04/06 04:17:30;;;;;;;13.07;7.25;;;;;;;;;;4979666;28;20050;-62
2023/04/06 04:19:57;;;;;;;15.70;6.78;;;;;;;;;;4978962;28;20043;-63
2023/04/06 04:22:24;;;;;;;14.52;7.18;;;;;;;;;;4978971;28;20034;-63
2023/04/06 04:24:50;;;;;;;16.02;7.32;;;;;;;;;;4978367;28;20582;-64
2023/04/06 04:27:17;;;;;;;18.60;8.10;;;;;;;;;;4979217;28;20041;-64
2023/04/06 04:29:43;;;;;;;12.02;6.50;;;;;;;;;;4969801;28;20089;-64
2023/04/06 04:32:10;;;;;;;14.93;7.13;;;;;;;;;;4977325;28;20042;-67
2023/04/06 04:34:39;;;;;;;14.27;7.45;;;;;;;;;;4990406;28;20070;-64
2023/04/06 04:37:06;;;;;;;18.00;8.50;;;;;;;;;;4979489;28;20042;-65
2023/04/06 04:39:33;;;;;;;14.80;7.70;;;;;;;;;;4977082;28;20037;-64
2023/04/06 04:42:00;;;;;;;11.90;7.18;;;;;;;;;;4978519;28;20678;-65
2023/04/06 04:44:26;;;;;;;12.95;7.35;;;;;;;;;;4992708;28;20451;-64
2023/04/06 04:46:53;;;;;;;13.07;6.90;;;;;;;;;;4978147;28;20042;-64
2023/04/06 04:49:20;;;;;;;14.63;7.20;;;;;;;;;;4976273;28;20067;-64
2023/04/06 04:51:46;;;;;;;16.58;7.90;;;;;;;;;;4978839;28;20042;-65
2023/04/06 04:54:13;;;;;;;14.73;7.05;;;;;;;;;;4978419;28;20121;-64
2023/04/06 04:56:39;;;;;;;18.40;9.15;;;;;;;;;;4977042;28;20050;-62
2023/04/06 04:59:06;;;;;;;15.65;8.25;;;;;;;;;;4978303;28;20117;-64
2023/04/06 05:01:32;;;;;;;19.70;8.77;;;;;;;;;;4978624;28;20104;-65
2023/04/06 05:03:59;;;;;;;19.60;9.25;;;;;;;;;;4979365;28;20045;-62
2023/04/06 05:06:26;;;;;;;18.10;8.07;;;;;;;;;;4979900;28;20042;-64
2023/04/06 05:08:52;;;;;;;15.73;8.40;;;;;;;;;;4980566;28;20046;-64
2023/04/06 05:11:19;;;;;;;17.90;8.63;;;;;;;;;;4980766;28;20473;-63
2023/04/06 05:13:46;;;;;;;15.65;8.18;;;;;;;;;;4972772;28;20062;-61
2023/04/06 05:16:13;;;;;;;18.50;9.38;;;;;;;;;;4990944;28;20035;-64
2023/04/06 05:18:40;;;;;;;17.42;9.00;;;;;;;;;;4979979;28;20039;-61
2023/04/06 05:21:07;;;;;;;15.95;8.80;;;;;;;;;;4981245;28;20515;-62
2023/04/06 05:23:33;;;;;;;20.83;9.88;;;;;;;;;;4980128;28;20113;-61
2023/04/06 05:26:00;;;;;;;16.83;9.50;;;;;;;;;;4980609;28;20081;-61
2023/04/06 05:28:27;;;;;;;20.30;10.32;;;;;;;;;;4979446;28;20062;-63
2023/04/06 05:30:53;;;;;;;22.63;9.00;;;;;;;;;;4979762;28;20038;-62
2023/04/06 05:33:20;;;;;;;20.02;10.35;;;;;;;;;;4980015;28;20700;-62
2023/04/06 05:35:47;;;;;;;17.70;9.45;;;;;;;;;;4979899;28;20450;-62
2023/04/06 05:38:13;;;;;;;20.10;9.15;;;;;;;;;;4985483;28;20514;-61
2023/04/06 05:40:41;;;;;;;20.23;10.00;;;;;;;;;;4980641;28;20042;-63
2023/04/06 05:43:08;;;;;;;17.40;9.50;;;;;;;;;;4982095;28;20063;-62
2023/04/06 05:45:34;;;;;;;21.38;9.63;;;;;;;;;;4980673;28;20054;-64
2023/04/06 05:48:02;;;;;;;17.33;9.13;;;;;;;;;;4979171;28;21835;-64
2023/04/06 05:50:28;;;;;;;17.25;8.57;;;;;;;;;;4977919;28;20129;-60
2023/04/06 05:52:55;;;;;;;18.42;9.65;;;;;;;;;;4979494;28;20042;-64
2023/04/06 05:55:22;;;;;;;20.15;9.20;;;;;;;;;;4978070;28;20388;-65
2023/04/06 05:57:48;;;;;;;19.02;10.20;;;;;;;;;;4979850;28;20163;-62
2023/04/06 06:00:15;;;;;;;16.25;8.90;;;;;;;;;;4977763;28;20042;-63
2023/04/06 06:02:42;;;;;;;18.95;9.30;;;;;;;;;;4977929;28;20073;-64
2023/04/06 06:05:10;;;;;;;20.15;9.05;;;;;;;;;;4976786;28;20060;-63
2023/04/06 06:07:37;;;;;;;16.33;8.98;;;;;;;;;;4976433;28;20049;-63
2023/04/06 06:10:03;;;;;;;25.92;9.20;;;;;;;;;;4976234;28;20042;-61
2023/04/06 06:12:30;;;;;;;16.30;9.90;;;;;;;;;;4976851;28;20066;-63
2023/04/06 06:14:57;;;;;;;21.00;9.57;;;;;;;;;;4977480;28;20050;-62
2023/04/06 06:17:23;;;;;;;20.88;10.43;;;;;;;;;;4975982;28;20088;-59
2023/04/06 06:19:50;;;;;;;21.75;9.77;;;;;;;;;;4976860;28;20050;-62
2023/04/06 06:22:17;;;;;;;19.92;10.00;;;;;;;;;;4977930;28;20188;-62
2023/04/06 06:24:43;;;;;;;20.50;10.13;;;;;;;;;;4975768;28;20829;-61
2023/04/06 06:27:10;;;;;;;18.92;10.43;;;;;;;;;;4978130;28;20054;-63
2023/04/06 06:29:36;;;;;;;20.35;10.23;;;;;;;;;;4975895;28;20135;-64
2023/04/06 06:32:03;;;;;;;19.17;9.90;;;;;;;;;;4991526;28;20066;-62
2023/04/06 06:34:30;;;;;;;18.33;9.23;;;;;;;;;;4975997;28;20038;-64
2023/04/06 06:36:56;;;;;;;25.27;9.45;;;;;;;;;;4977280;28;20162;-62
2023/04/06 06:39:23;;;;;;;20.00;9.93;;;;;;;;;;4976381;28;20149;-63
2023/04/06 06:41:50;;;;;;;18.30;10.30;;;;;;;;;;4977037;28;20046;-64
2023/04/06 06:44:16;;;;;;;22.40;9.57;;;;;;;;;;4976968;28;20118;-64
2023/04/06 06:46:43;;;;;;;22.85;9.75;;;;;;;;;;4966889;28;20129;-63
2023/04/06 06:49:12;;;;;;;20.75;10.35;;;;;;;;;;4975881;28;20127;-62
2023/04/06 06:51:38;;;;;;;21.38;10.40;;;;;;;;;;4975094;28;21177;-65
2023/04/06 06:54:05;;;;;;;24.42;11.45;;;;;;;;;;4975877;28;20387;-63
2023/04/06 06:56:31;;;;;;;19.20;10.25;;;;;;;;;;4975401;28;20046;-63
2023/04/06 06:58:58;;;;;;;19.50;10.63;;;;;;;;;;4975428;28;20097;-63
2023/04/06 07:01:25;;;;;;;22.00;10.98;;;;;;;;;;4970097;28;21007;-64
2023/04/06 07:03:51;;;;;;;19.85;10.38;;;;;;;;;;4978051;28;20504;-64
2023/04/06 07:06:18;;;;;;;20.25;10.75;;;;;;;;;;4978208;28;20038;-63
2023/04/06 07:08:44;;;;;;;21.70;10.63;;;;;;;;;;4976372;28;20153;-64
2023/04/06 07:11:11;;;;;;;23.42;10.77;;;;;;;;;;4976264;28;20042;-63
2023/04/06 07:13:37;;;;;;;21.35;10.35;;;;;;;;;;4976420;28;20148;-63
2023/04/06 07:16:04;;;;;;;19.42;10.82;;;;;;;;;;4977352;28;20411;-62
2023/04/06 07:18:31;;;;;;;22.60;11.00;;;;;;;;;;4975478;28;20558;-63
2023/04/06 07:20:58;;;;;;;24.40;11.38;;;;;;;;;;4975857;28;20208;-62
2023/04/06 07:23:25;;;;;;;23.75;10.95;;;;;;;;;;4975969;28;20806;-62
2023/04/06 07:25:53;;;;;;;20.23;10.23;;;;;;;;;;4977287;28;20061;-63
2023/04/06 07:28:20;;;;;;;28.02;11.60;;;;;;;;;;4976094;28;20310;-64
2023/04/06 07:30:46;;;;;;;21.88;11.50;;;;;;;;;;4977288;28;20062;-62
2023/04/06 07:33:13;;;;;;;22.77;10.63;;;;;;;;;;4976243;28;20125;-63
2023/04/06 07:35:40;;;;;;;24.65;11.20;;;;;;;;;;4976468;28;20042;-63
2023/04/06 07:38:06;;;;;;;27.25;11.82;;;;;;;;;;4976526;28;20050;-64
2023/04/06 07:40:33;;;;;;;23.05;10.65;;;;;;;;;;4974124;28;20034;-65
2023/04/06 07:43:00;;;;;;;21.77;11.68;;;;;;;;;;4977125;28;20578;-64
2023/04/06 07:45:26;;;;;;;24.38;10.73;;;;;;;;;;4975936;28;20055;-64
2023/04/06 07:47:53;;;;;;;28.25;11.68;;;;;;;;;;4977053;28;20049;-62
2023/04/06 07:50:20;;;;;;;21.88;11.15;;;;;;;;;;4969404;28;20141;-62
2023/04/06 07:52:46;;;;;;;20.77;10.65;;;;;;;;;;4976066;28;20054;-63
2023/04/06 07:55:13;;;;;;;21.30;10.57;;;;;;;;;;4976342;28;20042;-63
2023/04/06 07:57:40;;;;;;;23.15;11.02;;;;;;;;;;4976300;28;20065;-64
2023/04/06 08:00:09;;;;;;;23.23;11.88;;;;;;;;;;4976026;28;20034;-63
2023/04/06 08:02:35;;;;;;;23.92;11.82;;;;;;;;;;4974776;28;20074;-63
2023/04/06 08:05:02;;;;;;;28.88;11.75;;;;;;;;;;4977195;28;20181;-63
2023/04/06 08:07:29;;;;;;;25.30;11.65;;;;;;;;;;4976479;28;20426;-64
2023/04/06 08:09:55;;;;;;;23.83;11.57;;;;;;;;;;4975905;28;20098;-64
2023/04/06 08:12:23;;;;;;;23.52;11.93;;;;;;;;;;4977399;28;20040;-63
2023/04/06 08:14:50;;;;;;;22.75;11.70;;;;;;;;;;4994431;28;20124;-65
2023/04/06 08:17:16;;;;;;;23.30;12.00;;;;;;;;;;4979612;28;20038;-66
2023/04/06 08:19:44;;;;;;;26.00;11.90;;;;;;;;;;4979750;28;20598;-65
2023/04/06 08:22:11;;;;;;;18.38;10.55;;;;;;;;;;4979241;28;20042;-66
2023/04/06 08:24:37;;;;;;;25.10;11.63;;;;;;;;;;4978866;28;20514;-65
2023/04/06 08:27:04;;;;;;;24.88;12.38;;;;;;;;;;4980794;28;20518;-66
2023/04/06 08:29:31;;;;;;;25.77;12.20;;;;;;;;;;4978879;28;21925;-65
2023/04/06 08:31:57;;;;;;;26.83;11.93;;;;;;;;;;4971588;28;20866;-64
2023/04/06 08:34:24;;;;;;;26.48;11.93;;;;;;;;;;4977615;28;20042;-65
2023/04/06 08:36:51;;;;;;;22.27;11.50;;;;;;;;;;4981865;28;20129;-63
2023/04/06 08:39:23;;;;;;;27.25;12.00;;;;;;;;;;4981381;28;20050;-65
2023/04/06 08:41:51;;;;;;;23.05;11.98;;;;;;;;;;4976251;28;20057;-66
2023/04/06 08:44:18;;;;;;;24.73;12.45;;;;;;;;;;4980803;28;20073;-65
2023/04/06 08:46:45;;;;;;;30.45;11.82;;;;;;;;;;4988360;28;20088;-64
2023/04/06 08:49:11;;;;;;;25.13;11.70;;;;;;;;;;4988276;28;20070;-64
2023/04/06 08:51:38;;;;;;;25.77;11.52;;;;;;;;;;4987946;28;20881;-64
2023/04/06 08:54:05;;;;;;;30.33;12.05;;;;;;;;;;4987500;28;20070;-65
2023/04/06 08:56:32;;;;;;;28.08;12.80;;;;;;;;;;4985860;28;20100;-67
2023/04/06 08:58:59;;;;;;;25.08;12.48;;;;;;;;;;4973993;28;20039;-66
2023/04/06 09:01:27;;;;;;;27.27;11.75;;;;;;;;;;4979813;28;20042;-65
2023/04/06 09:03:58;;;;;;;25.83;12.85;;;;;;;;;;4979814;28;20050;-65
2023/04/06 09:06:26;;;;;;;25.45;12.30;;;;;;;;;;4979373;28;20074;-65
2023/04/06 09:08:54;;;;;;;21.30;11.85;;;;;;;;;;4978624;28;20038;-62
2023/04/06 09:11:21;;;;;;;24.75;12.35;;;;;;;;;;4978259;28;20069;-65
2023/04/06 09:13:47;;;;;;;22.75;11.90;;;;;;;;;;4978779;28;20045;-64
2023/04/06 09:16:15;;;;;;;28.02;12.52;;;;;;;;;;4979319;28;20158;-63
2023/04/06 09:18:41;;;;;;;28.70;12.48;;;;;;;;;;4976547;28;20034;-65
2023/04/06 09:21:09;;;;;;;29.13;12.85;;;;;;;;;;4983199;28;20137;-63
2023/04/06 09:23:36;;;;;;;27.85;12.48;;;;;;;;;;4976176;28;20061;-63
2023/04/06 09:26:13;;;;;;;27.73;12.02;;;;;;;;;;4978872;28;20523;-66
2023/04/06 09:28:52;;;;;;;26.88;12.73;;;;;;;;;;4976771;28;20035;-65
2023/04/06 09:31:25;;;;;;;23.90;12.23;;;;;;;;;;4973605;28;20034;-65
2023/04/06 09:33:52;;;;;;;19.80;11.27;;;;;;;;;;4978037;28;20038;-63
2023/04/06 09:36:18;;;;;;;34.05;11.85;;;;;;;;;;4980133;28;20026;-65
2023/04/06 09:38:55;;;;;;;28.88;12.02;;;;;;;;;;4976716;28;20190;-65
2023/04/06 09:41:36;;;;;;;23.55;11.70;;;;;;;;;;4977288;28;20049;-65
2023/04/06 09:44:10;;;;;;;22.27;11.65;;;;;;;;;;4977226;28;20050;-65
2023/04/06 09:46:39;;;;;;;23.27;11.48;;;;;;;;;;4974508;28;20468;-65
2023/04/06 09:49:06;;;;;;;25.92;12.43;;;;;;;;;;4970879;28;20049;-65
2023/04/06 09:51:39;;;;;;;34.30;12.80;;;;;;;;;;4979540;28;20046;-65
2023/04/06 09:54:06;;;;;;;36.60;12.00;;;;;;;;;;4982508;28;20069;-65
2023/04/06 09:56:42;;;;;;;24.58;11.02;;;;;;;;;;4984895;28;20153;-66
2023/04/06 09:59:14;;;;;;;27.35;12.63;;;;;;;;;;5001286;28;20044;-66
2023/04/06 10:01:41;;;;;;;27.70;12.18;;;;;;;;;;4991837;28;20102;-64
2023/04/06 10:04:14;;;;;;;22.63;11.75;;;;;;;;;;4991949;28;20034;-65
2023/04/06 10:06:40;;;;;;;28.75;12.18;;;;;;;;;;4995735;28;20039;-65
2023/04/06 10:09:09;;;;;;;27.17;11.98;;;;;;;;;;4980167;28;20052;-65
2023/04/06 10:11:36;;;;;;;31.48;12.55;;;;;;;;;;4968088;28;20093;-65
2023/04/06 10:14:02;;;;;;;31.40;12.60;;;;;;;;;;4992935;28;20837;-63
2023/04/06 10:16:29;;;;;;;27.60;12.38;;;;;;;;;;4977165;28;20038;-66
2023/04/06 10:19:05;;;;;;;27.90;12.32;;;;;;;;;;4976499;28;20053;-63
2023/04/06 10:21:32;;;;;;;32.72;12.88;;;;;;;;;;4976636;28;20042;-62
2023/04/06 10:24:00;;;;;;;35.78;12.73;;;;;;;;;;4977575;28;20526;-63
2023/04/06 10:26:27;;;;;;;30.95;12.68;;;;;;;;;;4991525;28;20054;-63
2023/04/06 10:28:54;;;;;;;28.15;11.98;;;;;;;;;;4977457;28;20061;-62
2023/04/06 10:31:27;;;;;;;28.05;12.57;;;;;;;;;;4969796;28;20364;-62
2023/04/06 10:33:55;;;;;;;26.98;12.30;;;;;;;;;;4976750;28;20693;-63
2023/04/06 10:36:27;;;;;;;30.50;12.48;;;;;;;;;;4975788;28;20499;-65
2023/04/06 10:38:58;;;;;;;23.63;11.55;;;;;;;;;;4976502;28;20152;-65
2023/04/06 10:41:32;;;;;;;27.85;11.57;;;;;;;;;;4975874;28;20046;-64
2023/04/06 10:44:00;;;;;;;31.73;11.65;;;;;;;;;;4977401;28;20507;-64
2023/04/06 10:46:31;;;;;;;25.42;12.10;;;;;;;;;;4977096;28;20054;-64
2023/04/06 10:48:58;;;;;;;30.90;11.98;;;;;;;;;;4975797;28;20045;-63
2023/04/06 10:51:28;;;;;;;30.00;12.27;;;;;;;;;;4976642;28;20046;-64
2023/04/06 10:53:56;;;;;;;35.13;12.65;;;;;;;;;;4968439;28;20057;-64
2023/04/06 10:56:25;;;;;;;30.02;12.80;;;;;;;;;;4975815;28;20100;-65
2023/04/06 10:58:58;;;;;;;28.98;13.30;;;;;;;;;;4966389;28;20149;-64
2023/04/06 11:01:28;;;;;;;30.73;12.98;;;;;;;;;;4986298;28;20482;-64
2023/04/06 11:03:56;;;;;;;37.55;12.90;;;;;;;;;;4977262;28;21855;-64
2023/04/06 11:06:30;;;;;;;35.63;12.82;;;;;;;;;;4975640;28;20393;-63
2023/04/06 11:08:58;;;;;;;29.92;13.45;;;;;;;;;;4976422;28;20222;-63
2023/04/06 11:11:26;;;;;;;29.15;11.88;;;;;;;;;;4975785;28;20066;-63
2023/04/06 11:13:56;;;;;;;29.05;12.32;;;;;;;;;;4976732;28;20089;-63
2023/04/06 11:16:24;;;;;;;28.70;12.70;;;;;;;;;;4975377;28;20113;-65
2023/04/06 11:18:51;;;;;;;35.00;13.77;;;;;;;;;;4976156;28;20530;-64
2023/04/06 11:21:18;;;;;;;29.25;11.80;;;;;;;;;;4975716;28;20517;-67
2023/04/06 11:23:45;;;;;;;34.47;13.00;;;;;;;;;;4970782;28;20121;-65
2023/04/06 11:26:13;;;;;;;28.13;12.93;;;;;;;;;;4976883;28;20097;-63
2023/04/06 11:28:43;;;;;;;26.38;12.07;;;;;;;;;;4975607;28;20046;-64
2023/04/06 11:31:11;;;;;;;35.08;11.93;;;;;;;;;;4976432;28;20053;-66
2023/04/06 11:33:38;;;;;;;37.15;13.05;;;;;;;;;;4970957;28;20038;-65
2023/04/06 11:36:05;;;;;;;26.38;11.80;;;;;;;;;;4976586;28;20100;-66
2023/04/06 11:38:32;;;;;;;27.13;11.93;;;;;;;;;;4976163;28;20039;-67
2023/04/06 11:40:59;;;;;;;29.85;12.45;;;;;;;;;;4978091;28;20220;-64
2023/04/06 11:43:30;;;;;;;25.63;12.57;;;;;;;;;;4976172;28;20050;-65
2023/04/06 11:46:08;;;;;;;29.02;12.80;;;;;;;;;;4978101;28;20144;-65
2023/04/06 11:48:44;;;;;;;27.23;12.05;;;;;;;;;;4978808;28;20084;-65
2023/04/06 11:51:12;;;;;;;37.00;12.52;;;;;;;;;;4980654;28;20034;-64
2023/04/06 11:53:46;;;;;;;25.90;11.43;;;;;;;;;;4981010;28;20038;-65
2023/04/06 11:56:12;;;;;;;32.53;11.93;;;;;;;;;;4984986;28;20034;-65
2023/04/06 11:58:40;;;;;;;28.65;12.18;;;;;;;;;;4979606;28;20050;-65
2023/04/06 12:01:07;;;;;;;27.33;12.65;;;;;;;;;;4980806;28;20486;-68
2023/04/06 12:03:33;;;;;;;33.90;11.10;;;;;;;;;;4980192;28;20066;-65
2023/04/06 12:06:00;;;;;;;22.27;11.43;;;;;;;;;;4978458;28;20514;-67
2023/04/06 12:08:27;;;;;;;27.25;12.88;;;;;;;;;;4979404;28;20038;-66
2023/04/06 12:10:53;;;;;;;30.02;10.90;;;;;;;;;;4979790;28;20038;-65
2023/04/06 12:13:20;;;;;;;42.75;12.82;;;;;;;;;;4979492;28;20344;-65
2023/04/06 12:15:46;;;;;;;25.13;11.50;;;;;;;;;;4982772;28;20050;-64
2023/04/06 12:18:13;;;;;;;32.28;12.00;;;;;;;;;;4976023;28;20395;-64
2023/04/06 12:20:39;;;;;;;28.75;11.45;;;;;;;;;;4981949;28;20046;-66
2023/04/06 12:23:06;;;;;;;33.28;12.27;;;;;;;;;;4983315;28;20062;-65
2023/04/06 12:25:33;;;;;;;29.98;11.80;;;;;;;;;;4981890;28;20114;-65
2023/04/06 12:28:00;;;;;;;29.45;11.57;;;;;;;;;;4980618;28;20042;-64
2023/04/06 12:30:26;;;;;;;38.40;12.23;;;;;;;;;;4970724;28;20050;-64
2023/04/06 12:32:53;;;;;;;30.60;11.57;;;;;;;;;;4971200;28;20464;-64
2023/04/06 12:35:20;;;;;;;26.38;11.43;;;;;;;;;;4979605;28;20043;-65
2023/04/06 12:37:47;;;;;;;26.60;11.93;;;;;;;;;;4978875;28;20050;-65
2023/04/06 12:40:14;;;;;;;29.45;12.07;;;;;;;;;;4982347;28;20041;-64
2023/04/06 12:42:41;;;;;;;34.15;11.70;;;;;;;;;;4978414;28;20069;-64
2023/04/06 12:45:09;;;;;;;37.75;13.52;;;;;;;;;;4978562;28;20431;-64
2023/04/06 12:47:36;;;;;;;26.02;12.23;;;;;;;;;;4958611;28;20109;-65
2023/04/06 12:50:03;;;;;;;25.15;11.30;;;;;;;;;;4978747;28;20031;-66
2023/04/06 12:52:31;;;;;;;21.48;10.63;;;;;;;;;;4977503;28;20470;-61
2023/04/06 12:55:00;;;;;;;26.10;11.77;;;;;;;;;;4978653;28;20197;-63
2023/04/06 12:57:26;;;;;;;46.83;12.02;;;;;;;;;;4990256;28;20038;-62
2023/04/06 12:59:53;;;;;;;23.38;10.88;;;;;;;;;;4979436;28;20101;-63
2023/04/06 13:02:21;;;;;;;29.02;11.20;;;;;;;;;;4970086;28;20038;-64
2023/04/06 13:04:47;;;;;;;26.30;11.85;;;;;;;;;;4994609;28;20047;-60
2023/04/06 13:07:14;;;;;;;41.30;12.35;;;;;;;;;;4976774;28;20137;-65
2023/04/06 13:09:41;;;;;;;34.83;10.93;;;;;;;;;;4978807;28;20049;-63
2023/04/06 13:12:07;;;;;;;45.50;13.45;;;;;;;;;;4977605;28;20043;-64
2023/04/06 13:14:34;;;;;;;28.10;12.75;;;;;;;;;;4977071;28;20054;-65
2023/04/06 13:17:01;;;;;;;48.22;12.77;;;;;;;;;;4978979;28;20042;-63
2023/04/06 13:19:27;;;;;;;34.58;11.85;;;;;;;;;;4970525;28;20039;-65
2023/04/06 13:21:54;;;;;;;47.10;12.93;;;;;;;;;;4981202;28;20949;-63
2023/04/06 13:24:21;;;;;;;37.00;11.80;;;;;;;;;;4976666;28;20050;-64
2023/04/06 13:26:48;;;;;;;37.53;12.20;;;;;;;;;;4973208;28;20352;-64
2023/04/06 13:29:14;;;;;;;38.63;12.25;;;;;;;;;;4996194;28;20571;-63
2023/04/06 13:31:41;;;;;;;48.55;13.75;;;;;;;;;;4971987;28;20056;-63
2023/04/06 13:34:08;;;;;;;41.15;12.75;;;;;;;;;;4980671;28;20046;-65
2023/04/06 13:36:35;;;;;;;22.90;11.07;;;;;;;;;;4978682;28;20026;-68
2023/04/06 13:39:01;;;;;;;31.38;11.80;;;;;;;;;;4995534;28;20038;-65
2023/04/06 13:41:30;;;;;;;48.80;12.93;;;;;;;;;;4996590;28;20061;-65
2023/04/06 13:43:57;;;;;;;31.25;12.20;;;;;;;;;;4981196;28;20829;-65
2023/04/06 13:46:25;;;;;;;39.40;12.75;;;;;;;;;;4982128;28;20053;-65
2023/04/06 13:48:51;;;;;;;38.00;12.63;;;;;;;;;;4969911;28;20046;-66
2023/04/06 13:51:18;;;;;;;32.00;12.27;;;;;;;;;;4983899;28;20088;-65
2023/04/06 13:53:45;;;;;;;38.55;12.73;;;;;;;;;;4994253;28;20049;-65
2023/04/06 13:56:11;;;;;;;60.65;13.82;;;;;;;;;;4976443;28;20419;-66
2023/04/06 13:58:38;;;;;;;28.83;12.07;;;;;;;;;;4985416;28;20035;-64
2023/04/06 14:01:06;;;;;;;29.30;11.50;;;;;;;;;;4974162;28;20398;-64
2023/04/06 14:03:33;;;;;;;35.53;11.88;;;;;;;;;;4977294;28;20552;-64
2023/04/06 14:06:00;;;;;;;31.05;11.68;;;;;;;;;;4977306;28;20124;-62
2023/04/06 14:08:27;;;;;;;27.67;11.57;;;;;;;;;;4976164;28;20108;-63
2023/04/06 14:10:55;;;;;;;27.50;11.13;;;;;;;;;;4980374;28;20132;-63
2023/04/06 14:13:22;;;;;;;32.83;11.27;;;;;;;;;;4979913;28;20053;-64
2023/04/06 14:15:53;;;;;;;26.13;10.95;;;;;;;;;;4974747;28;20034;-65
2023/04/06 14:18:22;;;;;;;27.13;10.80;;;;;;;;;;4976407;28;20057;-62
2023/04/06 14:21:08;;;;;;;28.48;9.85;;;;;;;;;;4983714;28;20078;-62
2023/04/06 14:23:35;;;;;;;29.17;9.68;;;;;;;;;;4984652;28;20226;-63